Terminal Aerodrome Forecast
Issued by NWS Wilmington, NC

Home | Current Version | Previous Version | Text Only | Print | Product List | Glossary On
Versions: 1 2 3 4 5 6 7 8 9 10 11 12 13
554
FTUS42 KILM 291730
TAFILM
TAF
KILM 291730Z 2918/3018 27012KT P6SM SCT040 SCT250
     FM292000 22012G18KT P6SM VCTS SCT040CB
     FM300000 22004KT P6SM SCT250
     FM301200 24006KT P6SM BKN250
     FM301600 23009G14KT P6SM SKC=

USA.gov is the U.S. government's official web portal to all federal, state and local government web resources and services.